Time;durP1;ratioP1;P1;durP2;ratioP2;P2;SDS_P1;SDS_P2;PMS_P1;PMS_P2;Temp;Humidity;BMP_temperature;BMP_pressure;BME280_temperature;BME280_humidity;BME280_pressure;Samples;Min_cycle;Max_cycle;Signal;HPM_P1;HPM_P2
2021/04/09 00:00:15;;;;;;;25.20;11.97;;;;;;;3.15;55.47;100910.91;5025582;27;97267;-75
2021/04/09 00:02:41;;;;;;;26.27;11.40;;;;;;;3.16;55.64;100904.00;5047642;27;101647;-73
2021/04/09 00:05:08;;;;;;;21.63;11.43;;;;;;;3.12;55.43;100913.50;5024587;27;100999;-73
2021/04/09 00:07:34;;;;;;;26.90;12.37;;;;;;;3.10;55.42;100907.41;5044490;27;96946;-73
2021/04/09 00:10:00;;;;;;;27.63;12.40;;;;;;;2.99;55.82;100906.50;5063106;27;96859;-73
2021/04/09 00:12:26;;;;;;;25.20;12.23;;;;;;;2.96;55.34;100906.47;5047865;27;101145;-73
2021/04/09 00:14:51;;;;;;;25.97;12.30;;;;;;;2.88;55.46;100913.31;5051267;27;100910;-73
2021/04/09 00:17:17;;;;;;;21.73;10.83;;;;;;;2.76;55.67;100914.09;5049958;27;97257;-75
2021/04/09 00:19:43;;;;;;;28.37;11.90;;;;;;;2.75;55.90;100911.53;5062992;27;97420;-72
2021/04/09 00:22:08;;;;;;;27.97;11.67;;;;;;;2.68;55.76;100908.88;5032921;27;101448;-73
2021/04/09 00:24:34;;;;;;;27.63;11.97;;;;;;;2.78;55.91;100911.53;5064639;27;97852;-73
2021/04/09 00:26:59;;;;;;;21.50;11.10;;;;;;;2.74;56.09;100914.97;5063099;27;96750;-72
2021/04/09 00:29:26;;;;;;;25.93;12.17;;;;;;;2.66;55.90;100920.97;5048465;27;97608;-73
2021/04/09 00:31:52;;;;;;;28.00;13.23;;;;;;;2.56;56.11;100916.56;5027369;27;101553;-73
2021/04/09 00:34:17;;;;;;;32.70;12.70;;;;;;;2.47;56.33;100907.00;5051337;27;99209;-75
2021/04/09 00:36:43;;;;;;;24.00;11.87;;;;;;;2.55;56.67;100911.38;5048538;27;97051;-73
2021/04/09 00:39:09;;;;;;;25.43;12.10;;;;;;;2.59;56.97;100913.09;5041652;27;99288;-73
2021/04/09 00:41:39;;;;;;;22.97;10.97;;;;;;;2.48;56.64;100911.31;5049280;27;101232;-74
2021/04/09 00:44:10;;;;;;;22.50;11.33;;;;;;;2.35;56.86;100904.28;5050007;27;97634;-75
2021/04/09 00:46:35;;;;;;;23.03;10.33;;;;;;;2.29;56.79;100905.94;5049075;27;96819;-73
2021/04/09 00:49:02;;;;;;;21.40;9.87;;;;;;;2.13;57.35;100907.53;5048352;27;97430;-73
2021/04/09 00:51:28;;;;;;;21.13;10.50;;;;;;;2.13;57.57;100902.38;5028124;27;100788;-73
2021/04/09 00:53:55;;;;;;;26.07;10.87;;;;;;;2.09;57.46;100910.94;5055010;27;98978;-73
2021/04/09 00:56:24;;;;;;;18.80;10.03;;;;;;;2.00;57.31;100906.53;5044446;27;96887;-73
2021/04/09 00:58:49;;;;;;;18.87;9.07;;;;;;;1.96;57.68;100904.78;5046362;27;97680;-74
2021/04/09 01:01:15;;;;;;;21.03;10.77;;;;;;;1.92;57.89;100905.59;5045175;27;101121;-75
2021/04/09 01:03:41;;;;;;;29.33;10.77;;;;;;;1.92;57.65;100908.16;5049083;27;101254;-74
2021/04/09 01:06:07;;;;;;;20.43;9.73;;;;;;;1.94;57.79;100904.75;5028740;27;97245;-73
2021/04/09 01:08:32;;;;;;;25.63;10.00;;;;;;;1.92;57.77;100910.75;5055011;27;97332;-74
2021/04/09 01:10:58;;;;;;;22.87;10.53;;;;;;;1.88;57.94;100911.59;5050288;27;102309;-74
2021/04/09 01:13:24;;;;;;;23.50;11.80;;;;;;;1.90;57.73;100908.16;5047609;27;101370;-73
2021/04/09 01:15:51;;;;;;;28.50;11.37;;;;;;;1.85;57.81;100906.38;5049523;27;98972;-73
2021/04/09 01:18:24;;;;;;;22.33;10.53;;;;;;;1.79;57.92;100908.03;5049567;27;97459;-76
2021/04/09 01:20:59;;;;;;;26.43;11.40;;;;;;;1.71;59.08;100903.63;5046697;27;98127;-74
2021/04/09 01:23:41;;;;;;;25.20;11.20;;;;;;;1.64;58.48;100899.25;5045732;27;99337;-74
2021/04/09 01:26:10;;;;;;;29.00;11.60;;;;;;;1.61;58.49;100900.09;5041540;27;97271;-73
2021/04/09 01:28:54;;;;;;;22.83;9.67;;;;;;;1.65;58.91;100896.66;5059504;27;97194;-75
2021/04/09 01:31:42;;;;;;;26.27;11.27;;;;;;;1.67;59.29;100896.69;5042118;27;98817;-75
2021/04/09 01:34:08;;;;;;;23.43;10.60;;;;;;;1.64;59.38;100889.75;5061841;27;98851;-73
2021/04/09 01:36:57;;;;;;;25.70;10.00;;;;;;;1.63;58.85;100889.72;5049872;27;97070;-72
2021/04/09 01:39:38;;;;;;;23.40;10.77;;;;;;;1.58;59.21;100881.94;5058377;27;96878;-75
2021/04/09 01:42:06;;;;;;;23.73;9.87;;;;;;;1.51;60.09;100881.00;5056507;27;100954;-73
2021/04/09 01:44:33;;;;;;;20.83;10.33;;;;;;;1.50;59.51;100878.38;5034791;27;101266;-74
2021/04/09 01:46:59;;;;;;;18.83;9.13;;;;;;;1.49;59.41;100881.84;5067599;27;97134;-74
2021/04/09 01:49:29;;;;;;;20.87;9.57;;;;;;;1.50;60.25;100883.56;5053529;27;96852;-74
2021/04/09 01:51:55;;;;;;;24.43;9.67;;;;;;;1.54;59.85;100882.72;5063573;27;97964;-74
2021/04/09 01:54:22;;;;;;;20.67;9.17;;;;;;;1.50;60.02;100884.41;5053333;27;102069;-76
2021/04/09 01:56:50;;;;;;;18.83;8.50;;;;;;;1.49;60.27;100879.25;5051083;27;97100;-74
2021/04/09 01:59:17;;;;;;;24.60;9.77;;;;;;;1.48;60.24;100873.16;5061209;27;97581;-73
2021/04/09 02:01:45;;;;;;;26.30;9.67;;;;;;;1.54;60.16;100872.38;5051921;27;99076;-73
2021/04/09 02:04:10;;;;;;;22.17;9.80;;;;;;;1.45;60.38;100865.38;5042493;27;101368;-73
2021/04/09 02:06:38;;;;;;;21.43;8.70;;;;;;;1.44;60.26;100861.06;5041380;27;97137;-73
2021/04/09 02:09:05;;;;;;;18.70;9.63;;;;;;;1.49;60.56;100858.53;5061975;27;99472;-73
2021/04/09 02:11:33;;;;;;;22.20;8.87;;;;;;;1.46;60.68;100858.50;5035074;27;99428;-73
2021/04/09 02:13:59;;;;;;;22.90;9.20;;;;;;;1.44;60.76;100852.44;5031757;27;101192;-75
2021/04/09 02:16:28;;;;;;;25.03;9.07;;;;;;;1.49;60.65;100861.13;5047327;27;97347;-74
2021/04/09 02:18:54;;;;;;;21.40;8.67;;;;;;;1.47;60.77;100852.47;5045584;27;97172;-74
2021/04/09 02:21:19;;;;;;;20.00;8.83;;;;;;;1.49;60.57;100855.97;5059853;27;98444;-74
2021/04/09 02:23:45;;;;;;;21.37;8.87;;;;;;;1.45;60.78;100844.69;5028354;27;99675;-73
2021/04/09 02:26:11;;;;;;;21.07;8.60;;;;;;;1.48;61.05;100842.13;5046430;27;97261;-73
2021/04/09 02:28:38;;;;;;;15.40;8.83;;;;;;;1.45;61.62;100844.69;5050356;27;97407;-73
2021/04/09 02:31:10;;;;;;;22.03;8.47;;;;;;;1.44;61.10;100840.38;5041764;27;101434;-73
2021/04/09 02:33:37;;;;;;;17.75;7.82;;;;;;;1.47;61.47;100834.34;5052750;27;99168;-72
2021/04/09 02:36:10;;;;;;;19.83;8.87;;;;;;;1.48;60.92;100839.53;5052244;27;97580;-73
2021/04/09 02:38:36;;;;;;;18.60;8.33;;;;;;;1.49;60.93;100837.84;5051042;27;97242;-74
2021/04/09 02:41:02;;;;;;;18.87;8.70;;;;;;;1.46;61.24;100836.09;5044768;27;101179;-74
2021/04/09 02:43:32;;;;;;;15.03;7.20;;;;;;;1.53;60.88;100824.94;5050688;27;100877;-74
2021/04/09 02:45:57;;;;;;;14.00;7.93;;;;;;;1.51;61.26;100828.34;5058270;27;97055;-72
2021/04/09 02:48:26;;;;;;;16.37;8.10;;;;;;;1.48;61.24;100825.72;5064403;27;97275;-75
2021/04/09 02:50:52;;;;;;;16.00;7.63;;;;;;;1.53;60.61;100819.75;5057156;27;99120;-74
2021/04/09 02:53:26;;;;;;;18.43;8.00;;;;;;;1.52;61.14;100825.81;5050264;27;101565;-74
2021/04/09 02:55:52;;;;;;;19.20;7.60;;;;;;;1.51;61.17;100823.19;5027168;27;97173;-73
2021/04/09 02:58:18;;;;;;;18.07;8.33;;;;;;;1.46;60.90;100823.16;5052675;27;97048;-73
2021/04/09 03:00:45;;;;;;;19.83;7.70;;;;;;;1.45;61.18;100817.94;5052101;27;101387;-73
2021/04/09 03:03:11;;;;;;;19.87;8.70;;;;;;;1.49;61.11;100814.56;5049634;27;99071;-73
2021/04/09 03:05:39;;;;;;;15.53;7.40;;;;;;;1.43;61.19;100809.31;5048968;27;97425;-73
2021/04/09 03:08:05;;;;;;;19.10;8.80;;;;;;;1.46;61.09;100809.34;5030645;27;97483;-73
2021/04/09 03:10:30;;;;;;;16.00;7.80;;;;;;;1.44;61.36;100811.91;5051784;27;101126;-74
2021/04/09 03:12:56;;;;;;;17.97;7.57;;;;;;;1.46;60.83;100805.03;5053893;27;100886;-73
2021/04/09 03:15:24;;;;;;;18.73;7.87;;;;;;;1.45;61.11;100802.41;5056658;27;99165;-75
2021/04/09 03:17:55;;;;;;;14.60;7.17;;;;;;;1.41;60.90;100811.88;5066116;27;96827;-73
2021/04/09 03:20:21;;;;;;;16.70;7.47;;;;;;;1.38;61.49;100803.22;5052949;27;101263;-73
2021/04/09 03:22:47;;;;;;;16.67;7.17;;;;;;;1.40;61.17;100810.16;5026281;27;102185;-74
2021/04/09 03:25:12;;;;;;;25.47;8.03;;;;;;;1.35;61.21;100806.63;5063931;27;98952;-73
2021/04/09 03:27:38;;;;;;;17.87;8.07;;;;;;;1.34;61.08;100807.50;5051234;27;97152;-73
2021/04/09 03:30:05;;;;;;;18.70;8.27;;;;;;;1.33;61.37;100808.31;5067377;27;98244;-73
2021/04/09 03:32:30;;;;;;;16.17;8.60;;;;;;;1.32;61.77;100804.00;5061517;27;99093;-73
2021/04/09 03:34:56;;;;;;;17.07;8.20;;;;;;;1.29;61.37;100807.44;5055704;27;96958;-73
2021/04/09 03:37:21;;;;;;;18.03;8.23;;;;;;;1.31;61.39;100795.38;5055263;27;99247;-74
2021/04/09 03:39:47;;;;;;;15.73;7.77;;;;;;;1.30;61.79;100795.34;5025503;27;99974;-73
2021/04/09 03:42:13;;;;;;;15.80;7.20;;;;;;;1.31;61.41;100795.38;5053729;27;98952;-74
2021/04/09 03:44:38;;;;;;;16.50;7.57;;;;;;;1.30;61.38;100785.00;5045559;27;98852;-73
2021/04/09 03:47:04;;;;;;;17.33;7.47;;;;;;;1.34;61.26;100792.84;5055832;27;97106;-73
2021/04/09 03:49:29;;;;;;;17.30;7.23;;;;;;;1.32;61.29;100785.91;5062634;27;97899;-73
2021/04/09 03:51:55;;;;;;;13.93;7.07;;;;;;;1.32;61.38;100783.31;5031391;27;101703;-74
2021/04/09 03:54:21;;;;;;;20.57;7.80;;;;;;;1.29;61.23;100778.97;5028940;27;98978;-74
2021/04/09 03:56:46;;;;;;;15.83;7.37;;;;;;;1.17;61.61;100777.97;5053034;27;97236;-73
2021/04/09 03:59:12;;;;;;;16.23;7.80;;;;;;;1.18;61.58;100777.97;5037363;27;102027;-72
2021/04/09 04:01:37;;;;;;;19.63;7.77;;;;;;;1.10;61.72;100775.28;5053281;27;101417;-75
2021/04/09 04:04:03;;;;;;;17.60;7.40;;;;;;;1.08;61.77;100777.03;5046935;27;97438;-74
2021/04/09 04:06:29;;;;;;;12.23;6.90;;;;;;;1.13;61.58;100772.78;5043770;27;96924;-74
2021/04/09 04:08:54;;;;;;;16.37;7.10;;;;;;;1.09;61.45;100760.63;5082246;27;98030;-73
2021/04/09 04:11:20;;;;;;;14.30;6.93;;;;;;;1.08;61.20;100765.81;5049220;27;100464;-74
2021/04/09 04:13:46;;;;;;;14.53;6.83;;;;;;;1.07;61.59;100764.91;5042967;27;97366;-73
2021/04/09 04:16:11;;;;;;;11.93;6.03;;;;;;;1.16;60.86;100760.72;5051931;27;99081;-74
2021/04/09 04:18:37;;;;;;;27.13;9.13;;;;;;;1.15;61.35;100764.16;5050508;27;101630;-75
2021/04/09 04:21:02;;;;;;;16.80;7.23;;;;;;;1.16;61.00;100758.97;5047388;27;101790;-73
2021/04/09 04:23:28;;;;;;;11.90;6.07;;;;;;;1.22;60.50;100760.78;5058722;27;96866;-74
2021/04/09 04:25:54;;;;;;;15.80;6.67;;;;;;;1.22;60.24;100756.50;5054604;27;97678;-74
2021/04/09 04:28:19;;;;;;;13.57;5.80;;;;;;;1.27;60.15;100749.63;5065609;27;97368;-75
2021/04/09 04:30:50;;;;;;;17.47;6.33;;;;;;;1.26;60.11;100758.25;5062475;27;99168;-74
2021/04/09 04:33:20;;;;;;;17.67;6.60;;;;;;;1.35;60.05;100750.59;5051917;27;97095;-73
2021/04/09 04:35:46;;;;;;;16.80;6.97;;;;;;;1.34;59.95;100761.78;5061808;27;97242;-73
2021/04/09 04:38:12;;;;;;;18.17;8.43;;;;;;;1.47;59.94;100757.59;5063071;27;99103;-75
2021/04/09 04:40:37;;;;;;;14.40;6.73;;;;;;;1.49;59.81;100757.63;5052675;27;99208;-73
2021/04/09 04:43:04;;;;;;;16.17;6.77;;;;;;;1.52;59.83;100755.06;5052444;27;97234;-73
2021/04/09 04:45:30;;;;;;;15.30;6.83;;;;;;;1.96;58.62;100758.03;5045103;27;96949;-74
2021/04/09 04:47:56;;;;;;;16.33;7.20;;;;;;;2.84;56.33;100750.81;5034136;27;101440;-74
2021/04/09 04:50:21;;;;;;;14.93;7.10;;;;;;;3.27;54.95;100748.38;5050411;27;97875;-73
2021/04/09 04:52:47;;;;;;;17.17;6.80;;;;;;;3.02;55.74;100752.59;5052716;27;97261;-74
2021/04/09 04:55:13;;;;;;;18.73;7.60;;;;;;;3.03;55.73;100749.16;5048424;27;97036;-75
2021/04/09 04:57:38;;;;;;;14.53;6.77;;;;;;;3.17;54.93;100747.47;5033824;27;101019;-73
2021/04/09 05:00:04;;;;;;;14.93;6.67;;;;;;;3.43;54.13;100744.06;5048402;27;102156;-73
2021/04/09 05:02:30;;;;;;;16.90;6.87;;;;;;;3.69;53.70;100752.75;5049339;27;97472;-74
2021/04/09 05:04:55;;;;;;;14.57;6.47;;;;;;;3.90;52.82;100740.66;5051499;27;99540;-73
2021/04/09 05:07:21;;;;;;;15.07;5.83;;;;;;;4.11;52.45;100743.25;5047983;27;101031;-75
2021/04/09 05:09:46;;;;;;;18.37;5.60;;;;;;;4.32;51.81;100739.75;5046180;27;101141;-74
2021/04/09 05:12:12;;;;;;;14.57;6.43;;;;;;;4.44;51.44;100747.53;5029489;27;97430;-73
2021/04/09 05:14:38;;;;;;;10.80;5.40;;;;;;;4.70;51.04;100742.25;5067417;27;97008;-74
2021/04/09 05:17:03;;;;;;;13.17;6.30;;;;;;;4.95;50.60;100736.97;5053261;27;98208;-73
2021/04/09 05:19:29;;;;;;;13.47;6.30;;;;;;;4.81;50.35;100736.16;5050480;27;101680;-75
2021/04/09 05:21:55;;;;;;;10.90;5.67;;;;;;;5.09;49.63;100734.28;5042930;27;97518;-74
2021/04/09 05:24:20;;;;;;;15.50;7.40;;;;;;;5.36;49.45;100736.75;5061674;27;97277;-74
2021/04/09 05:26:46;;;;;;;15.60;6.90;;;;;;;5.61;48.64;100731.38;5049705;27;98073;-74
2021/04/09 05:29:11;;;;;;;12.03;6.13;;;;;;;5.65;48.35;100726.13;5030328;27;101323;-74
2021/04/09 05:31:37;;;;;;;14.03;6.23;;;;;;;5.75;48.70;100734.72;5060032;27;97407;-74
2021/04/09 05:34:02;;;;;;;12.00;5.40;;;;;;;5.94;48.06;100732.91;5041142;27;97131;-74
2021/04/09 05:36:28;;;;;;;15.53;7.00;;;;;;;6.26;47.33;100727.38;5050852;27;100959;-76
2021/04/09 05:38:54;;;;;;;13.47;6.20;;;;;;;6.45;46.55;100725.44;5027857;27;102103;-74
2021/04/09 05:41:19;;;;;;;14.77;6.57;;;;;;;6.84;46.05;100715.44;5050411;27;99229;-74
2021/04/09 05:43:45;;;;;;;11.27;5.87;;;;;;;7.13;45.48;100716.81;5044162;27;96956;-76
2021/04/09 05:46:11;;;;;;;11.93;5.47;;;;;;;7.59;44.53;100718.75;5060618;27;98486;-72
2021/04/09 05:48:36;;;;;;;16.53;5.80;;;;;;;7.90;43.95;100714.75;5029873;27;101501;-73
2021/04/09 05:51:02;;;;;;;15.90;5.80;;;;;;;7.94;43.76;100715.56;5046680;27;97258;-72
2021/04/09 05:53:27;;;;;;;11.67;5.40;;;;;;;9.06;41.12;100711.69;5030038;27;97296;-75
2021/04/09 05:55:53;;;;;;;15.13;5.80;;;;;;;10.58;38.56;100714.97;5049259;27;101512;-73
2021/04/09 05:58:19;;;;;;;12.32;5.57;;;;;;;12.35;35.70;100713.81;5031192;27;101646;-72
2021/04/09 06:00:44;;;;;;;9.70;5.10;;;;;;;12.79;34.74;100703.47;5043167;27;99038;-73
2021/04/09 06:03:10;;;;;;;10.27;4.85;;;;;;;13.46;33.42;100705.31;5052647;27;97325;-73
2021/04/09 06:05:35;;;;;;;14.50;4.72;;;;;;;13.35;33.54;100694.31;5030200;27;101604;-73
2021/04/09 06:08:01;;;;;;;10.57;4.75;;;;;;;13.05;33.82;100691.94;5060840;27;98239;-73
2021/04/09 06:10:27;;;;;;;12.48;4.95;;;;;;;12.72;34.43;100694.06;5050612;27;99377;-74
2021/04/09 06:12:52;;;;;;;10.45;5.00;;;;;;;12.23;35.04;100687.94;5063006;27;98869;-75
2021/04/09 06:15:18;;;;;;;10.57;4.50;;;;;;;12.52;34.47;100689.53;5045101;27;101368;-74
2021/04/09 06:17:44;;;;;;;11.02;4.72;;;;;;;12.25;34.37;100686.13;5059995;27;101027;-73
2021/04/09 06:20:10;;;;;;;9.80;4.70;;;;;;;12.62;34.01;100676.88;5028673;27;96981;-74
2021/04/09 06:22:36;;;;;;;11.00;4.57;;;;;;;13.13;34.19;100674.06;5051335;27;97251;-73
2021/04/09 06:25:07;;;;;;;7.68;4.45;;;;;;;13.09;33.39;100661.94;5052921;27;100224;-73
2021/04/09 06:27:33;;;;;;;7.60;3.90;;;;;;;13.25;33.08;100666.59;5058789;27;98069;-74
2021/04/09 06:29:59;;;;;;;11.40;5.10;;;;;;;14.61;31.30;100662.66;5044206;27;97410;-73
2021/04/09 06:32:24;;;;;;;9.05;4.60;;;;;;;16.71;28.80;100654.88;5062579;27;97222;-74
2021/04/09 06:34:50;;;;;;;7.68;4.57;;;;;;;17.92;27.21;100657.81;5050755;27;100844;-75
2021/04/09 06:37:15;;;;;;;7.00;4.82;;;;;;;18.50;26.78;100652.50;5029193;27;102048;-74
2021/04/09 06:39:41;;;;;;;16.17;14.65;;;;;;;18.96;26.31;100646.97;5052171;27;97212;-74
2021/04/09 06:42:07;;;;;;;11.48;7.35;;;;;;;19.14;25.76;100642.28;5048963;27;97128;-74
2021/04/09 06:44:33;;;;;;;8.20;4.65;;;;;;;19.16;25.69;100651.00;5058448;27;98533;-75
2021/04/09 06:46:59;;;;;;;7.70;4.75;;;;;;;19.41;24.89;100631.63;5047535;27;97883;-74
2021/04/09 06:49:25;;;;;;;13.07;4.93;;;;;;;19.02;24.86;100635.06;5064128;27;99550;-74
2021/04/09 06:51:51;;;;;;;10.02;3.95;;;;;;;19.17;24.70;100633.25;5043728;27;97343;-74
2021/04/09 06:54:17;;;;;;;10.52;4.72;;;;;;;19.84;24.59;100634.13;5050591;27;98860;-74
2021/04/09 06:56:46;;;;;;;8.30;5.13;;;;;;;19.80;24.55;100627.28;5058007;27;98035;-74
2021/04/09 06:59:17;;;;;;;9.05;5.63;;;;;;;20.06;24.06;100630.00;5064125;27;97230;-74
2021/04/09 07:01:44;;;;;;;;;;;;;;;21.15;26.08;100616.97;5052821;27;99380;-71
2021/04/09 07:04:10;;;;;;;9.35;4.45;;;;;;;21.17;23.05;100613.19;5055186;27;101200;-72
2021/04/09 07:06:36;;;;;;;7.97;4.50;;;;;;;21.26;22.79;100619.66;5041652;27;101864;-71
2021/04/09 07:09:01;;;;;;;10.93;3.80;;;;;;;21.11;22.95;100604.78;5049705;27;97303;-71
2021/04/09 07:11:28;;;;;;;9.38;3.75;;;;;;;20.72;22.93;100614.75;5063662;27;97197;-71
2021/04/09 07:13:56;;;;;;;5.38;3.80;;;;;;;21.55;22.69;100606.00;5049923;27;101574;-72
2021/04/09 07:16:22;;;;;;;6.00;3.80;;;;;;;22.80;21.24;100608.72;5049951;27;97870;-74
2021/04/09 07:18:49;;;;;;;8.05;3.90;;;;;;;22.83;20.84;100600.44;5034439;27;97262;-73
2021/04/09 07:21:28;;;;;;;6.80;4.03;;;;;;;23.25;20.55;100603.31;5072440;27;97417;-73
2021/04/09 07:24:12;;;;;;;12.18;4.72;;;;;;;22.89;20.81;100607.13;5054031;27;98488;-73
2021/04/09 07:26:42;;;;;;;10.75;4.68;;;;;;;24.29;20.32;100609.69;5054029;27;101125;-73
2021/04/09 07:29:30;;;;;;;6.70;4.22;;;;;;;24.12;20.07;100609.34;5089836;27;97290;-73
2021/04/09 07:32:23;;;;;;;11.40;4.70;;;;;;;23.22;20.50;100600.88;5070722;27;97346;-73
2021/04/09 07:34:51;;;;;;;7.68;4.05;;;;;;;23.91;20.41;100595.94;5016860;27;101714;-74
2021/04/09 07:37:16;;;;;;;9.48;5.05;;;;;;;23.63;20.33;100604.59;5027357;27;101461;-74
2021/04/09 07:39:43;;;;;;;6.45;4.05;;;;;;;24.38;20.09;100592.81;5048992;27;97192;-74
2021/04/09 07:42:11;;;;;;;6.43;4.43;;;;;;;24.52;19.96;100589.78;5026824;27;97281;-74
2021/04/09 07:44:38;;;;;;;8.77;3.88;;;;;;;24.23;19.95;100580.72;5039635;27;101430;-74
2021/04/09 07:47:11;;;;;;;9.10;4.00;;;;;;;24.67;19.57;100578.66;5041888;27;101259;-74
2021/04/09 07:49:37;;;;;;;9.52;4.53;;;;;;;24.74;19.29;100571.78;5046620;27;97231;-74
2021/04/09 07:52:14;;;;;;;4.70;3.45;;;;;;;24.91;18.81;100559.50;5068259;27;96863;-74
2021/04/09 07:54:40;;;;;;;11.93;3.67;;;;;;;24.78;19.21;100559.75;5041316;27;101133;-73
2021/04/09 07:57:06;;;;;;;7.82;3.58;;;;;;;26.19;18.38;100560.97;5044136;27;101454;-74
2021/04/09 07:59:43;;;;;;;4.88;3.05;;;;;;;26.19;18.19;100552.06;5037329;27;97151;-76
2021/04/09 08:02:09;;;;;;;9.68;4.07;;;;;;;26.70;17.96;100550.69;5053484;27;97537;-74
2021/04/09 08:04:36;;;;;;;7.60;4.00;;;;;;;26.73;17.67;100550.41;5052413;27;100463;-74
2021/04/09 08:07:02;;;;;;;7.30;3.72;;;;;;;26.28;17.90;100555.72;5064288;27;98248;-75
2021/04/09 08:09:49;;;;;;;4.63;3.25;;;;;;;26.72;17.41;100545.19;5040551;27;97278;-75
2021/04/09 08:12:28;;;;;;;14.73;9.15;;;;;;;27.79;16.99;100533.56;5066465;27;97357;-76
2021/04/09 08:14:54;;;;;;;8.43;4.25;;;;;;;27.28;19.75;100542.22;5043645;27;100642;-75
2021/04/09 08:17:23;;;;;;;7.72;4.72;;;;;;;26.91;17.20;100547.75;5061114;27;100853;-75
2021/04/09 08:19:54;;;;;;;8.77;5.05;;;;;;;27.43;17.06;100529.06;5030179;27;97311;-74
2021/04/09 08:22:21;;;;;;;7.78;4.03;;;;;;;27.75;16.94;100539.25;5061370;27;97386;-75
2021/04/09 08:24:47;;;;;;;10.30;4.22;;;;;;;27.62;16.74;100533.41;5043474;27;98299;-75
2021/04/09 08:27:14;;;;;;;8.25;4.68;;;;;;;28.39;16.84;100536.22;5027230;27;101344;-75
2021/04/09 08:29:41;;;;;;;9.75;4.00;;;;;;;28.94;16.90;100533.03;5051049;27;97383;-75
2021/04/09 08:32:07;;;;;;;8.63;5.22;;;;;;;27.99;16.61;100533.19;5042948;27;97220;-77
2021/04/09 08:34:33;;;;;;;16.55;14.63;;;;;;;28.18;16.85;100534.78;5064977;27;98229;-77
2021/04/09 08:36:59;;;;;;;6.88;4.18;;;;;;;28.16;17.06;100525.19;5034544;27;101553;-74
2021/04/09 08:39:24;;;;;;;7.75;3.92;;;;;;;27.80;16.79;100529.84;5052165;27;97336;-74
2021/04/09 08:41:50;;;;;;;5.93;4.47;;;;;;;27.08;17.34;100519.09;5068481;27;97473;-75
2021/04/09 08:44:16;;;;;;;8.15;4.53;;;;;;;26.15;17.32;100521.94;5033988;27;101671;-75
2021/04/09 08:46:42;;;;;;;11.40;3.95;;;;;;;25.11;18.33;100523.63;5054240;27;102219;-75
2021/04/09 08:49:10;;;;;;;7.22;4.30;;;;;;;26.33;17.81;100513.91;5026364;27;97384;-76
2021/04/09 08:51:40;;;;;;;5.18;3.78;;;;;;;26.00;17.83;100522.53;5058958;27;97160;-79
2021/04/09 08:54:30;;;;;;;;;;;;;;;26.76;18.03;100509.72;5043351;27;101831;-77
2021/04/09 08:56:56;;;;;;;8.82;3.45;;;;;;;25.82;17.63;100520.63;5045141;27;101360;-74
2021/04/09 08:59:37;;;;;;;8.02;4.68;;;;;;;23.89;18.68;100522.00;5023941;27;97429;-75
2021/04/09 09:02:15;;;;;;;7.35;4.25;;;;;;;23.87;19.08;100515.91;5055094;27;96915;-75
2021/04/09 09:05:04;;;;;;;9.35;4.30;;;;;;;24.43;18.83;100507.41;5071141;27;100453;-75
2021/04/09 09:07:47;;;;;;;7.20;4.40;;;;;;;24.84;18.54;100509.06;5053149;27;98280;-75
2021/04/09 09:10:22;;;;;;;7.95;4.03;;;;;;;25.57;18.42;100494.34;5053914;27;96743;-75
2021/04/09 09:13:03;;;;;;;6.43;4.57;;;;;;;25.19;18.18;100496.97;5053892;27;97241;-75
2021/04/09 09:15:44;;;;;;;7.53;3.92;;;;;;;24.12;19.12;100485.97;5054262;27;101388;-75
2021/04/09 09:18:19;;;;;;;9.50;4.50;;;;;;;23.33;20.05;100476.78;5064391;27;101586;-73
2021/04/09 09:21:11;;;;;;;6.22;4.40;;;;;;;22.20;20.79;100476.28;5070598;27;97269;-73
2021/04/09 09:23:58;;;;;;;10.60;5.43;;;;;;;21.14;21.46;100476.44;5025536;27;97173;-75
2021/04/09 09:26:45;;;;;;;12.05;4.65;;;;;;;19.73;23.03;100474.22;5071522;27;98275;-72
2021/04/09 09:29:28;;;;;;;7.43;4.53;;;;;;;18.44;23.84;100469.50;5044206;27;101259;-74
2021/04/09 09:32:06;;;;;;;8.02;4.35;;;;;;;17.78;24.83;100460.38;5053807;27;97303;-72
2021/04/09 09:34:39;;;;;;;9.23;4.90;;;;;;;17.16;25.50;100471.16;5051641;27;97560;-72
2021/04/09 09:37:17;;;;;;;8.52;5.25;;;;;;;16.90;25.73;100467.38;5056043;27;101383;-72
2021/04/09 09:40:02;;;;;;;7.22;4.95;;;;;;;16.84;26.14;100464.22;5072855;27;101108;-72
2021/04/09 09:42:40;;;;;;;11.05;5.40;;;;;;;17.04;26.54;100468.34;5053924;27;97258;-72
2021/04/09 09:45:07;;;;;;;12.27;4.47;;;;;;;17.08;25.70;100454.84;5056141;27;97269;-72
2021/04/09 09:47:44;;;;;;;7.95;5.32;;;;;;;17.21;26.19;100449.66;5055108;27;101539;-76
2021/04/09 09:50:22;;;;;;;11.85;4.93;;;;;;;17.01;26.26;100452.63;5047730;27;97898;-73
2021/04/09 09:52:57;;;;;;;12.00;5.20;;;;;;;16.94;26.33;100452.13;5053467;27;97018;-76
2021/04/09 09:55:41;;;;;;;10.65;5.47;;;;;;;16.84;26.71;100437.69;5086384;27;97034;-75
2021/04/09 09:58:31;;;;;;;12.93;5.10;;;;;;;16.66;27.27;100447.53;5047785;27;101418;-74
2021/04/09 10:00:57;;;;;;;8.05;4.53;;;;;;;16.43;27.12;100441.75;5048825;27;100973;-71
2021/04/09 10:03:30;;;;;;;8.77;4.97;;;;;;;16.33;27.07;100440.56;5067946;27;97339;-75
2021/04/09 10:06:13;;;;;;;6.25;4.32;;;;;;;16.15;27.61;100428.34;5050087;27;97253;-75
2021/04/09 10:08:41;;;;;;;12.52;5.45;;;;;;;15.99;27.57;100431.81;5047236;27;102067;-74
2021/04/09 10:11:17;;;;;;;10.05;4.93;;;;;;;16.03;28.15;100429.88;5037112;27;101186;-73
2021/04/09 10:13:45;;;;;;;7.63;4.93;;;;;;;15.81;28.12;100412.50;5028330;27;97462;-72
2021/04/09 10:16:14;;;;;;;12.05;5.40;;;;;;;16.02;27.70;100410.47;5056167;27;97109;-72
2021/04/09 10:18:48;;;;;;;9.70;6.35;;;;;;;15.72;27.71;100413.00;5054013;27;101330;-72
2021/04/09 10:21:23;;;;;;;9.38;6.25;;;;;;;15.57;27.79;100411.16;5038497;27;99790;-72
2021/04/09 10:23:51;;;;;;;13.43;5.20;;;;;;;15.35;28.49;100398.22;5090733;27;97536;-72
2021/04/09 10:26:23;;;;;;;7.95;5.05;;;;;;;15.63;28.42;100397.59;5051794;27;97206;-72
2021/04/09 10:28:48;;;;;;;10.90;5.00;;;;;;;15.69;28.48;100413.19;5052935;27;98233;-72
2021/04/09 10:31:15;;;;;;;9.52;5.18;;;;;;;15.68;29.00;100411.47;5054901;27;101054;-72
2021/04/09 10:33:49;;;;;;;15.27;5.30;;;;;;;15.34;28.99;100404.44;5054585;27;97191;-72
2021/04/09 10:36:21;;;;;;;10.25;5.00;;;;;;;15.55;28.56;100395.34;5057673;27;97360;-72
2021/04/09 10:38:47;;;;;;;;;;;;;;;15.40;29.33;100396.19;5044646;27;101831;-73
2021/04/09 10:41:29;;;;;;;11.00;5.32;;;;;;;15.40;29.18;100391.75;5050396;27;97351;-73
2021/04/09 10:44:01;;;;;;;7.32;5.45;;;;;;;15.50;29.30;100386.81;5042555;27;99524;-73
2021/04/09 10:46:31;;;;;;;13.10;5.70;;;;;;;15.19;29.09;100386.75;5024795;27;97546;-76
2021/04/09 10:48:58;;;;;;;10.23;5.65;;;;;;;14.76;29.39;100379.22;5044457;27;98188;-74
2021/04/09 10:51:32;;;;;;;9.88;5.10;;;;;;;14.79;29.74;100386.13;5049114;27;101421;-74
2021/04/09 10:53:58;;;;;;;9.10;4.72;;;;;;;14.98;29.89;100386.91;5041376;27;97347;-75
2021/04/09 10:56:23;;;;;;;7.93;4.43;;;;;;;14.91;29.88;100377.56;5038950;27;97222;-72
2021/04/09 10:58:49;;;;;;;10.93;5.60;;;;;;;15.03;29.07;100373.44;5049267;27;98210;-73
2021/04/09 11:01:15;;;;;;;12.05;5.35;;;;;;;14.94;29.16;100372.97;5082863;27;97290;-72
2021/04/09 11:03:41;;;;;;;10.70;5.43;;;;;;;14.73;29.08;100367.94;5043327;27;97134;-72
2021/04/09 11:06:08;;;;;;;7.00;4.70;;;;;;;14.65;29.65;100369.16;5030000;27;97420;-74
2021/04/09 11:08:38;;;;;;;11.70;4.93;;;;;;;14.83;29.77;100370.03;5045322;27;102231;-74
2021/04/09 11:11:13;;;;;;;6.20;4.63;;;;;;;14.90;30.33;100349.44;5080358;27;97982;-74
2021/04/09 11:13:41;;;;;;;10.43;5.45;;;;;;;14.83;29.70;100346.25;5042626;27;97406;-74
2021/04/09 11:16:09;;;;;;;6.00;4.60;;;;;;;14.67;30.04;100350.63;5042699;27;97009;-74
2021/04/09 11:18:55;;;;;;;10.77;5.72;;;;;;;14.71;30.53;100342.44;5069400;27;101957;-74
2021/04/09 11:21:43;;;;;;;13.82;4.80;;;;;;;14.71;29.67;100342.44;5043657;27;102525;-74
2021/04/09 11:24:30;;;;;;;9.55;5.00;;;;;;;14.49;30.37;100336.50;5087509;27;97235;-74
2021/04/09 11:26:58;;;;;;;8.20;5.00;;;;;;;14.33;30.11;100338.19;5075685;27;97255;-74
2021/04/09 11:29:31;;;;;;;8.00;4.80;;;;;;;14.17;30.42;100331.03;5051801;27;97967;-74